createdAt,value
2023-03-30T00:00:01.367Z,5.6
2023-03-30T00:01:05.391Z,5.5
2023-03-30T00:02:01.420Z,5.4
2023-03-30T00:03:01.458Z,5.5
2023-03-30T00:04:02.171Z,5.4
2023-03-30T00:05:01.548Z,5.6
2023-03-30T00:06:07.685Z,5.5
2023-03-30T00:07:01.018Z,5.5
2023-03-30T00:08:01.088Z,5.6
2023-03-30T00:09:01.678Z,5.7
2023-03-30T00:10:01.299Z,5.6
2023-03-30T00:11:10.910Z,5.5
2023-03-30T00:12:02.396Z,5.5
2023-03-30T00:13:01.120Z,5.5
2023-03-30T00:14:03.934Z,5.5
2023-03-30T00:15:01.058Z,5.6
2023-03-30T00:16:14.502Z,5.5
2023-03-30T00:17:01.059Z,5.5
2023-03-30T00:18:01.116Z,5.5
2023-03-30T00:19:01.059Z,5.5
2023-03-30T00:20:01.161Z,5.5
2023-03-30T00:21:16.690Z,5.5
2023-03-30T00:22:02.350Z,5.5
2023-03-30T00:23:01.492Z,5.5
2023-03-30T00:24:01.993Z,5.6
2023-03-30T00:25:01.086Z,5.6
2023-03-30T00:26:01.090Z,5.7
2023-03-30T00:27:01.018Z,5.6
2023-03-30T00:28:01.055Z,5.7
2023-03-30T00:29:01.149Z,5.7
2023-03-30T00:30:01.518Z,5.7
2023-03-30T00:31:01.695Z,5.7
2023-03-30T00:32:01.792Z,5.8
2023-03-30T00:33:01.105Z,5.8
2023-03-30T00:34:01.081Z,5.8
2023-03-30T00:35:01.059Z,5.7
2023-03-30T00:36:01.091Z,5.7
2023-03-30T00:37:01.435Z,5.7
2023-03-30T00:38:02.568Z,5.7
2023-03-30T00:39:02.336Z,5.6
2023-03-30T00:40:01.114Z,5.6
2023-03-30T00:41:01.251Z,5.8
2023-03-30T00:42:02.001Z,5.7
2023-03-30T00:43:02.704Z,5.7
2023-03-30T00:44:01.445Z,5.7
2023-03-30T00:45:02.168Z,5.8
2023-03-30T00:46:02.536Z,5.7
2023-03-30T00:47:00.809Z,5.7
2023-03-30T00:48:01.170Z,5.7
2023-03-30T00:49:02.115Z,5.7
2023-03-30T00:50:02.564Z,5.7
2023-03-30T00:51:02.510Z,5.9
2023-03-30T00:52:02.487Z,5.8
2023-03-30T00:53:01.751Z,5.9
2023-03-30T00:54:01.744Z,5.9
2023-03-30T00:55:01.382Z,5.9
2023-03-30T00:56:01.081Z,5.9
2023-03-30T00:57:01.393Z,5.8
2023-03-30T00:58:00.881Z,6
2023-03-30T00:59:00.745Z,6.2
2023-03-30T01:00:00.322Z,6.2
2023-03-30T01:00:59.866Z,6.2
2023-03-30T01:02:01.582Z,6.3
2023-03-30T01:03:01.262Z,6.3
2023-03-30T01:04:02.476Z,6.1
2023-03-30T01:05:01.500Z,6.1
2023-03-30T01:06:01.867Z,6.2
2023-03-30T01:07:01.052Z,6.1
2023-03-30T01:08:01.114Z,6.1
2023-03-30T01:09:01.215Z,6
2023-03-30T01:10:02.203Z,6
2023-03-30T01:11:01.196Z,6.1
2023-03-30T01:12:01.079Z,6.2
2023-03-30T01:13:01.089Z,6.2
2023-03-30T01:14:01.100Z,6.1
2023-03-30T01:15:01.117Z,6.1
2023-03-30T01:16:01.203Z,6.1
2023-03-30T01:17:01.220Z,6
2023-03-30T01:18:01.298Z,6
2023-03-30T01:19:01.278Z,6.3
2023-03-30T01:20:02.722Z,6.3
2023-03-30T01:21:02.247Z,6.3
2023-03-30T01:22:01.745Z,6.4
2023-03-30T01:23:01.049Z,6.3
2023-03-30T01:24:01.058Z,6.3
2023-03-30T01:25:01.043Z,6.2
2023-03-30T01:26:01.076Z,6.3
2023-03-30T01:27:01.430Z,6.3
2023-03-30T01:28:01.195Z,6.3
2023-03-30T01:29:04.587Z,6.3
2023-03-30T01:30:01.809Z,6.2
2023-03-30T01:31:01.398Z,6.2
2023-03-30T01:32:01.048Z,6.3
2023-03-30T01:33:01.218Z,6.4
2023-03-30T01:34:01.348Z,6.4
2023-03-30T01:35:02.583Z,6.4
2023-03-30T01:36:02.851Z,6.5
2023-03-30T01:37:01.033Z,6.4
2023-03-30T01:38:00.141Z,6.5
2023-03-30T01:38:59.801Z,6.6
2023-03-30T01:40:01.360Z,6.6
2023-03-30T01:41:01.444Z,6.5
2023-03-30T01:42:01.803Z,6.6
2023-03-30T01:43:01.741Z,6.8
2023-03-30T01:44:01.378Z,6.7
2023-03-30T01:45:02.072Z,6.7
2023-03-30T01:46:01.222Z,6.9
2023-03-30T01:47:05.270Z,7
2023-03-30T01:48:02.109Z,7
2023-03-30T01:49:02.049Z,7
2023-03-30T01:50:00.633Z,7.2
2023-03-30T01:51:00.309Z,7.3
2023-03-30T01:52:07.607Z,7.3
2023-03-30T01:53:04.292Z,7.4
2023-03-30T01:54:01.132Z,7.3
2023-03-30T01:55:01.064Z,7.4
2023-03-30T01:56:01.345Z,7.6
2023-03-30T01:57:11.325Z,7.7
2023-03-30T01:58:02.436Z,7.8
2023-03-30T01:59:02.209Z,8
2023-03-30T02:00:02.114Z,8.1
2023-03-30T02:01:01.215Z,8.1
2023-03-30T02:02:14.234Z,8.1
2023-03-30T02:03:01.742Z,8.3
2023-03-30T02:04:01.491Z,8.5
2023-03-30T02:05:01.707Z,8.4
2023-03-30T02:06:02.867Z,8.5
2023-03-30T02:07:14.453Z,8.3
2023-03-30T02:08:05.172Z,8.5
2023-03-30T02:09:01.248Z,8.5
2023-03-30T02:10:01.909Z,8.6
2023-03-30T02:11:02.470Z,8.7
2023-03-30T02:12:01.061Z,8.8
2023-03-30T02:13:01.058Z,8.7
2023-03-30T02:14:01.039Z,8.7
2023-03-30T02:15:01.053Z,8.7
2023-03-30T02:16:01.045Z,8.8
2023-03-30T02:17:01.107Z,8.8
2023-03-30T02:18:01.531Z,8.8
2023-03-30T02:19:01.208Z,8.9
2023-03-30T02:20:03.874Z,8.8
2023-03-30T02:21:03.122Z,8.8
2023-03-30T02:22:01.110Z,9
2023-03-30T02:23:01.117Z,9
2023-03-30T02:24:01.130Z,9.1
2023-03-30T02:25:01.035Z,9.1
2023-03-30T02:26:01.425Z,9.1
2023-03-30T02:27:01.415Z,9.1
2023-03-30T02:28:01.055Z,9.2
2023-03-30T02:29:01.011Z,9.2
2023-03-30T02:30:01.067Z,9.2
2023-03-30T02:31:01.162Z,9.3
2023-03-30T02:32:01.225Z,9.2
2023-03-30T02:33:01.741Z,9.2
2023-03-30T02:34:02.114Z,9.3
2023-03-30T02:35:02.057Z,9.5
2023-03-30T02:36:01.160Z,9.4
2023-03-30T02:37:01.123Z,9.4
2023-03-30T02:37:59.896Z,9.4
2023-03-30T02:38:59.601Z,9.4
2023-03-30T02:40:01.755Z,9.4
2023-03-30T02:41:01.474Z,9.4
2023-03-30T02:42:01.033Z,9.5
2023-03-30T02:43:01.171Z,9.4
2023-03-30T02:44:01.070Z,9.5
2023-03-30T02:45:01.056Z,9.5
2023-03-30T02:46:01.109Z,9.4
2023-03-30T02:47:01.067Z,9.5
2023-03-30T02:48:01.111Z,9.5
2023-03-30T02:49:01.082Z,9.4
2023-03-30T02:50:01.393Z,9.3
2023-03-30T02:51:01.530Z,9.5
2023-03-30T02:52:01.599Z,9.5
2023-03-30T02:53:01.349Z,9.4
2023-03-30T02:54:01.143Z,9.3
2023-03-30T02:55:01.116Z,9.4
2023-03-30T02:56:01.210Z,9.5
2023-03-30T02:57:01.858Z,9.3
2023-03-30T02:58:01.050Z,9.5
2023-03-30T02:59:01.073Z,9.5
2023-03-30T03:00:01.089Z,9.4
2023-03-30T03:01:01.195Z,9.4
2023-03-30T03:02:01.403Z,9.4
2023-03-30T03:03:01.134Z,9.3
2023-03-30T03:04:01.123Z,9.3
2023-03-30T03:05:01.189Z,9.5
2023-03-30T03:06:01.335Z,9.6
2023-03-30T03:07:01.092Z,9.6
2023-03-30T03:08:01.103Z,9.7
2023-03-30T03:09:01.105Z,9.7
2023-03-30T03:10:01.116Z,9.8
2023-03-30T03:11:01.443Z,9.8
2023-03-30T03:12:01.353Z,9.7
2023-03-30T03:13:02.095Z,9.7
2023-03-30T03:14:00.512Z,9.9
2023-03-30T03:15:01.719Z,9.9
2023-03-30T03:16:02.896Z,9.9
2023-03-30T03:17:02.527Z,9.9
2023-03-30T03:18:02.224Z,9.9
2023-03-30T03:19:01.263Z,9.9
2023-03-30T03:20:01.879Z,10
2023-03-30T03:21:01.591Z,9.9
2023-03-30T03:22:01.085Z,10
2023-03-30T03:23:01.056Z,9.9
2023-03-30T03:24:01.119Z,10
2023-03-30T03:25:01.700Z,9.9
2023-03-30T03:26:01.311Z,9.9
2023-03-30T03:27:01.126Z,9.9
2023-03-30T03:28:01.378Z,9.9
2023-03-30T03:29:02.260Z,10
2023-03-30T03:30:02.240Z,10
2023-03-30T03:31:08.467Z,10
2023-03-30T03:32:04.558Z,10.1
2023-03-30T03:33:04.605Z,10
2023-03-30T03:34:01.107Z,10
2023-03-30T03:35:01.087Z,10
2023-03-30T03:36:01.371Z,10
2023-03-30T03:37:01.450Z,10.1
2023-03-30T03:38:07.123Z,10
2023-03-30T03:39:01.094Z,10.2
2023-03-30T03:40:01.115Z,10.1
2023-03-30T03:41:01.109Z,10.1
2023-03-30T03:42:01.108Z,10.2
2023-03-30T03:43:10.259Z,10.3
2023-03-30T03:44:01.381Z,10.3
2023-03-30T03:45:01.419Z,10.3
2023-03-30T03:46:01.463Z,10.3
2023-03-30T03:47:01.415Z,10.3
2023-03-30T03:48:11.951Z,10.3
2023-03-30T03:49:02.108Z,10.2
2023-03-30T03:50:01.498Z,10.3
2023-03-30T03:51:00.918Z,10.3
2023-03-30T03:52:01.108Z,10.4
2023-03-30T03:53:16.101Z,10.3
2023-03-30T03:54:01.586Z,10.3
2023-03-30T03:55:01.216Z,10.3
2023-03-30T03:56:01.121Z,10.3
2023-03-30T03:57:01.158Z,10.2
2023-03-30T03:58:01.132Z,10.3
2023-03-30T03:59:00.705Z,10.4
2023-03-30T04:00:00.241Z,10.4
2023-03-30T04:01:00.296Z,10.3
2023-03-30T04:02:00.267Z,10.4
2023-03-30T04:03:00.251Z,10.5
2023-03-30T04:03:59.925Z,10.5
2023-03-30T04:04:59.602Z,10.5
2023-03-30T04:06:01.863Z,10.4
2023-03-30T04:07:01.078Z,10.3
2023-03-30T04:08:01.070Z,10.3
2023-03-30T04:09:01.045Z,10.6
2023-03-30T04:10:01.826Z,10.4
2023-03-30T04:11:00.991Z,10.4
2023-03-30T04:12:00.951Z,10.4
2023-03-30T04:13:00.706Z,10.4
2023-03-30T04:14:01.035Z,10.4
2023-03-30T04:15:00.732Z,10.4
2023-03-30T04:16:00.432Z,10.4
2023-03-30T04:17:00.138Z,10.4
2023-03-30T04:17:59.838Z,10.4
2023-03-30T04:18:59.806Z,10.3
2023-03-30T04:20:01.382Z,10.3
2023-03-30T04:21:02.306Z,10.3
2023-03-30T04:22:01.125Z,10.3
2023-03-30T04:23:01.262Z,10.2
2023-03-30T04:24:01.774Z,10.3
2023-03-30T04:25:01.117Z,10.3
2023-03-30T04:26:01.095Z,10.3
2023-03-30T04:27:01.434Z,10.2
2023-03-30T04:28:01.461Z,10.3
2023-03-30T04:29:01.016Z,10.2
2023-03-30T04:30:01.180Z,10.3
2023-03-30T04:31:01.179Z,10.3
2023-03-30T04:32:01.151Z,10.3
2023-03-30T04:33:01.160Z,10.3
2023-03-30T04:34:01.043Z,10.3
2023-03-30T04:35:00.738Z,10.3
2023-03-30T04:36:00.482Z,10.3
2023-03-30T04:37:00.209Z,10.3
2023-03-30T04:37:59.845Z,10.4
2023-03-30T04:39:01.476Z,10.4
2023-03-30T04:40:01.160Z,10.5
2023-03-30T04:41:02.175Z,10.5
2023-03-30T04:42:01.512Z,10.4
2023-03-30T04:43:02.741Z,10.5
2023-03-30T04:44:01.199Z,10.5
2023-03-30T04:45:01.735Z,10.5
2023-03-30T04:46:01.344Z,10.6
2023-03-30T04:47:02.134Z,10.6
2023-03-30T04:48:02.068Z,10.7
2023-03-30T04:49:01.141Z,10.8
2023-03-30T04:50:01.154Z,10.7
2023-03-30T04:51:01.210Z,10.7
2023-03-30T04:52:01.058Z,10.7
2023-03-30T04:53:01.061Z,10.8
2023-03-30T04:54:01.441Z,10.8
2023-03-30T04:55:01.031Z,10.9
2023-03-30T04:56:01.788Z,10.8
2023-03-30T04:57:01.221Z,10.8
2023-03-30T04:58:01.101Z,10.8
2023-03-30T04:59:01.087Z,10.8
2023-03-30T05:00:00.668Z,10.8
2023-03-30T05:01:00.320Z,10.8
2023-03-30T05:02:00.016Z,10.9
2023-03-30T05:02:59.711Z,10.9
2023-03-30T05:04:01.441Z,11.1
2023-03-30T05:05:01.031Z,11.1
2023-03-30T05:06:01.040Z,11.2
2023-03-30T05:07:01.327Z,11.1
2023-03-30T05:08:01.077Z,11.2
2023-03-30T05:09:01.041Z,11.1
2023-03-30T05:10:01.407Z,11.3
2023-03-30T05:11:01.495Z,11.3
2023-03-30T05:12:01.368Z,11.3
2023-03-30T05:13:02.335Z,11.4
2023-03-30T05:14:02.821Z,11.4
2023-03-30T05:15:01.922Z,11.4
2023-03-30T05:16:01.856Z,11.3
2023-03-30T05:17:01.062Z,11.5
2023-03-30T05:18:01.183Z,11.4
2023-03-30T05:19:05.629Z,11.5
2023-03-30T05:20:01.516Z,11.6
2023-03-30T05:21:01.922Z,11.5
2023-03-30T05:22:02.167Z,11.4
2023-03-30T05:23:01.145Z,11.4
2023-03-30T05:24:08.666Z,11.5
2023-03-30T05:25:01.048Z,11.5
2023-03-30T05:26:01.227Z,11.6
2023-03-30T05:27:01.068Z,11.5
2023-03-30T05:28:01.319Z,11.6
2023-03-30T05:29:12.386Z,11.7
2023-03-30T05:30:03.440Z,11.6
2023-03-30T05:31:02.590Z,11.6
2023-03-30T05:32:02.132Z,11.7
2023-03-30T05:33:02.077Z,11.7
2023-03-30T05:34:16.096Z,11.6
2023-03-30T05:35:03.875Z,11.5
2023-03-30T05:36:00.814Z,11.4
2023-03-30T05:37:01.148Z,11.5
2023-03-30T05:38:00.839Z,11.4
2023-03-30T05:39:00.422Z,11.4
2023-03-30T05:40:00.053Z,11.4
2023-03-30T05:41:00.066Z,11.3
2023-03-30T05:41:59.733Z,11.2
2023-03-30T05:43:01.726Z,11.1
2023-03-30T05:44:02.319Z,11.1
2023-03-30T05:45:01.420Z,11.1
2023-03-30T05:46:01.510Z,10.9
2023-03-30T05:47:00.673Z,10.7
2023-03-30T05:48:00.483Z,10.6
2023-03-30T05:49:00.172Z,10.4
2023-03-30T05:50:00.282Z,10.5
2023-03-30T05:51:02.298Z,10.5
2023-03-30T05:52:02.466Z,10.4
2023-03-30T05:53:01.525Z,10.4
2023-03-30T05:54:02.560Z,10.2
2023-03-30T05:55:02.271Z,10.3
2023-03-30T05:56:01.493Z,10.2
2023-03-30T05:57:01.206Z,10
2023-03-30T05:58:01.255Z,9.8
2023-03-30T05:59:02.499Z,9.9
2023-03-30T06:00:01.914Z,9.9
2023-03-30T06:01:02.035Z,10.1
2023-03-30T06:02:01.926Z,10
2023-03-30T06:03:01.841Z,9.8
2023-03-30T06:04:01.573Z,9.8
2023-03-30T06:05:01.205Z,9.9
2023-03-30T06:06:01.137Z,9.9
2023-03-30T06:07:01.125Z,9.7
2023-03-30T06:08:01.155Z,9.9
2023-03-30T06:09:01.430Z,9.9
2023-03-30T06:10:02.486Z,9.8
2023-03-30T06:11:01.178Z,9.9
2023-03-30T06:12:01.990Z,9.8
2023-03-30T06:13:01.217Z,9.7
2023-03-30T06:14:01.225Z,9.7
2023-03-30T06:15:02.138Z,9.8
2023-03-30T06:16:03.144Z,9.7
2023-03-30T06:17:01.976Z,9.7
2023-03-30T06:18:01.151Z,9.8
2023-03-30T06:19:01.077Z,9.9
2023-03-30T06:20:01.496Z,9.9
2023-03-30T06:21:01.119Z,9.9
2023-03-30T06:22:01.170Z,9.7
2023-03-30T06:23:01.111Z,9.8
2023-03-30T06:24:01.140Z,9.7
2023-03-30T06:25:01.145Z,9.9
2023-03-30T06:26:01.321Z,9.9
2023-03-30T06:27:01.565Z,9.7
2023-03-30T06:28:02.712Z,9.6
2023-03-30T06:29:01.829Z,9.4
2023-03-30T06:30:02.080Z,9.3
2023-03-30T06:31:02.831Z,9.4
2023-03-30T06:32:01.106Z,9.3
2023-03-30T06:33:01.101Z,9.3
2023-03-30T06:34:01.090Z,9.6
2023-03-30T06:35:00.863Z,9.2
2023-03-30T06:36:00.646Z,9.2
2023-03-30T06:37:00.227Z,9
2023-03-30T06:37:59.861Z,9
2023-03-30T06:39:01.505Z,8.7
2023-03-30T06:40:01.128Z,8.7
2023-03-30T06:41:01.557Z,8.8
2023-03-30T06:42:01.159Z,8.4
2023-03-30T06:43:01.040Z,8.4
2023-03-30T06:44:01.038Z,8.4
2023-03-30T06:45:01.459Z,8.4
2023-03-30T06:46:01.072Z,8.4
2023-03-30T06:47:01.063Z,8.5
2023-03-30T06:48:01.122Z,8.2
2023-03-30T06:49:01.080Z,8
2023-03-30T06:50:04.844Z,8
2023-03-30T06:51:01.153Z,7.8
2023-03-30T06:52:04.363Z,7.4
2023-03-30T06:53:01.394Z,7.6
2023-03-30T06:54:01.481Z,7.8
2023-03-30T06:55:07.622Z,7.7
2023-03-30T06:56:01.302Z,7.6
2023-03-30T06:57:02.003Z,7.2
2023-03-30T06:58:01.144Z,7.1
2023-03-30T06:59:01.128Z,7.2
2023-03-30T07:00:10.238Z,7
2023-03-30T07:01:01.555Z,7
2023-03-30T07:02:01.441Z,6.9
2023-03-30T07:03:01.179Z,6.6
2023-03-30T07:04:01.098Z,6.5
2023-03-30T07:05:13.593Z,6.7
2023-03-30T07:06:01.077Z,6.6
2023-03-30T07:07:01.304Z,6.6
2023-03-30T07:08:01.099Z,6.6
2023-03-30T07:09:01.023Z,6.4
2023-03-30T07:10:16.550Z,6.2
2023-03-30T07:11:02.407Z,6.3
2023-03-30T07:12:01.293Z,6.4
2023-03-30T07:13:01.124Z,6.5
2023-03-30T07:14:01.232Z,6.4
2023-03-30T07:15:01.138Z,6.7
2023-03-30T07:16:03.924Z,6.8
2023-03-30T07:17:00.763Z,6.3
2023-03-30T07:18:00.677Z,6.3
2023-03-30T07:19:00.346Z,6.1
2023-03-30T07:19:59.983Z,5.8
2023-03-30T07:20:59.630Z,6
2023-03-30T07:22:02.230Z,5.7
2023-03-30T07:23:01.394Z,5.8
2023-03-30T07:24:01.094Z,5.5
2023-03-30T07:25:01.097Z,4.6
2023-03-30T07:26:01.103Z,4.3
2023-03-30T07:27:01.116Z,5.2
2023-03-30T07:28:01.128Z,5.3
2023-03-30T07:29:01.169Z,5.3
2023-03-30T07:30:10.319Z,5.3
2023-03-30T07:31:01.663Z,5.3
2023-03-30T07:32:01.192Z,5.4
2023-03-30T07:33:01.149Z,5.4
2023-03-30T07:34:01.067Z,5.5
2023-03-30T07:35:01.402Z,5.5
2023-03-30T07:36:00.800Z,5.6
2023-03-30T07:37:01.313Z,5.5
2023-03-30T07:38:03.612Z,5.6
2023-03-30T07:39:01.909Z,5.7
2023-03-30T07:40:01.376Z,5.6
2023-03-30T07:41:01.172Z,5.4
2023-03-30T07:42:02.281Z,5.5
2023-03-30T07:43:01.932Z,6
2023-03-30T07:44:01.115Z,4.9
2023-03-30T07:45:01.115Z,5.1
2023-03-30T07:46:01.799Z,5
2023-03-30T07:47:01.147Z,5.1
2023-03-30T07:48:01.184Z,5.1
2023-03-30T07:49:01.583Z,5.3
2023-03-30T07:50:01.517Z,5.2
2023-03-30T07:51:01.230Z,4.8
2023-03-30T07:52:01.307Z,4.9
2023-03-30T07:53:02.279Z,4.9
2023-03-30T07:54:01.079Z,4.3
2023-03-30T07:55:01.101Z,4.6
2023-03-30T07:56:00.794Z,4.6
2023-03-30T07:57:01.096Z,4.5
2023-03-30T07:58:01.580Z,4.5
2023-03-30T07:59:01.883Z,4.4
2023-03-30T08:00:02.228Z,4.1
2023-03-30T08:01:01.239Z,4.2
2023-03-30T08:02:02.099Z,4.1
2023-03-30T08:03:02.226Z,3.8
2023-03-30T08:04:01.121Z,3.4
2023-03-30T08:05:01.232Z,3.2
2023-03-30T08:06:01.092Z,3.4
2023-03-30T08:07:01.390Z,3.3
2023-03-30T08:08:01.444Z,3.2
2023-03-30T08:09:04.102Z,3.7
2023-03-30T08:10:01.176Z,3.9
2023-03-30T08:11:01.271Z,3.6
2023-03-30T08:12:01.096Z,3.3
2023-03-30T08:13:01.097Z,3.6
2023-03-30T08:14:01.170Z,3.1
2023-03-30T08:15:01.109Z,2.5
2023-03-30T08:16:01.326Z,3.2
2023-03-30T08:17:04.557Z,3.5
2023-03-30T08:18:01.168Z,2.6
2023-03-30T08:19:01.148Z,1.6
2023-03-30T08:20:01.126Z,1
2023-03-30T08:21:01.096Z,1
2023-03-30T08:22:01.054Z,1
2023-03-30T08:23:01.056Z,1
2023-03-30T08:24:01.440Z,1
2023-03-30T08:25:01.474Z,1
2023-03-30T08:26:01.042Z,1
2023-03-30T08:27:01.350Z,1
2023-03-30T08:28:01.530Z,1
2023-03-30T08:29:01.152Z,1
2023-03-30T08:30:01.102Z,1
2023-03-30T08:31:01.841Z,1
2023-03-30T08:32:01.160Z,1
2023-03-30T08:33:01.188Z,1
2023-03-30T08:34:01.837Z,1
2023-03-30T08:35:01.144Z,1
2023-03-30T08:36:04.384Z,1
2023-03-30T08:37:01.916Z,1
2023-03-30T08:38:01.752Z,1
2023-03-30T08:39:01.278Z,1
2023-03-30T08:40:01.871Z,1
2023-03-30T08:41:07.612Z,1
2023-03-30T08:42:01.085Z,1
2023-03-30T08:43:01.082Z,1
2023-03-30T08:44:01.105Z,1
2023-03-30T08:45:01.087Z,1
2023-03-30T08:46:10.153Z,1
2023-03-30T08:47:01.112Z,1
2023-03-30T08:48:01.463Z,1
2023-03-30T08:49:01.520Z,1
2023-03-30T08:50:01.117Z,1
2023-03-30T08:51:13.455Z,1
2023-03-30T08:52:02.967Z,1
2023-03-30T08:53:01.156Z,1
2023-03-30T08:54:01.033Z,1
2023-03-30T08:55:01.056Z,1
2023-03-30T08:56:14.967Z,1
2023-03-30T08:57:01.510Z,1
2023-03-30T08:58:01.076Z,1
2023-03-30T08:59:01.105Z,1
2023-03-30T09:00:01.500Z,1
2023-03-30T09:01:01.144Z,1
2023-03-30T09:02:01.141Z,1
2023-03-30T09:03:01.149Z,1
2023-03-30T09:04:01.102Z,1
2023-03-30T09:05:01.160Z,1
2023-03-30T09:06:01.138Z,1
2023-03-30T09:07:02.262Z,1
2023-03-30T09:08:02.557Z,1
2023-03-30T09:09:02.062Z,1
2023-03-30T09:10:01.762Z,1
2023-03-30T09:11:01.179Z,1
2023-03-30T09:12:01.076Z,1
2023-03-30T09:13:01.083Z,1
2023-03-30T09:14:01.336Z,1
2023-03-30T09:15:01.091Z,1
2023-03-30T09:16:01.098Z,1
2023-03-30T09:17:01.661Z,1
2023-03-30T09:18:01.148Z,1
2023-03-30T09:19:01.115Z,1
2023-03-30T09:20:01.108Z,1
2023-03-30T09:21:01.273Z,1
2023-03-30T09:22:01.128Z,1
2023-03-30T09:23:01.765Z,1
2023-03-30T09:24:01.129Z,1
2023-03-30T09:25:01.042Z,1
2023-03-30T09:26:01.587Z,1
2023-03-30T09:27:01.449Z,1
2023-03-30T09:28:01.179Z,1
2023-03-30T09:29:01.115Z,1
2023-03-30T09:30:01.081Z,1
2023-03-30T09:31:01.209Z,1
2023-03-30T09:32:01.149Z,1
2023-03-30T09:33:01.889Z,1
2023-03-30T09:34:01.777Z,1
2023-03-30T09:35:01.115Z,1
2023-03-30T09:36:01.138Z,1
2023-03-30T09:37:00.912Z,1
2023-03-30T09:38:01.505Z,1
2023-03-30T09:39:01.058Z,1
2023-03-30T09:40:01.146Z,1
2023-03-30T09:41:01.071Z,1
2023-03-30T09:42:01.067Z,1
2023-03-30T09:43:01.144Z,1
2023-03-30T09:44:01.237Z,1
2023-03-30T09:45:01.534Z,1
2023-03-30T09:46:01.130Z,1
2023-03-30T09:47:02.333Z,1
2023-03-30T09:48:03.952Z,1
2023-03-30T09:49:01.130Z,1
2023-03-30T09:50:01.802Z,1
2023-03-30T09:51:02.550Z,1
2023-03-30T09:52:01.222Z,1
2023-03-30T09:53:02.029Z,1
2023-03-30T09:54:01.132Z,1
2023-03-30T09:55:01.128Z,1
2023-03-30T09:56:01.291Z,1.1
2023-03-30T09:57:00.736Z,1.1
2023-03-30T09:58:00.590Z,1.2
2023-03-30T09:59:00.322Z,1.2
2023-03-30T09:59:59.969Z,1.3
2023-03-30T10:00:59.696Z,1.3
2023-03-30T10:02:01.498Z,1.4
2023-03-30T10:03:01.203Z,1.3
2023-03-30T10:04:01.246Z,1.3
2023-03-30T10:05:01.378Z,1.5
2023-03-30T10:06:01.380Z,1.4
2023-03-30T10:07:09.775Z,1.3
2023-03-30T10:08:01.084Z,1.2
2023-03-30T10:09:01.142Z,1.2
2023-03-30T10:10:00.830Z,1.5
2023-03-30T10:11:01.196Z,1.1
2023-03-30T10:12:01.444Z,1
2023-03-30T10:13:01.147Z,1
2023-03-30T10:14:01.959Z,1
2023-03-30T10:15:02.116Z,1
2023-03-30T10:16:01.448Z,1
2023-03-30T10:17:01.071Z,1
2023-03-30T10:18:01.118Z,1
2023-03-30T10:19:01.331Z,1
2023-03-30T10:20:13.304Z,1
2023-03-30T10:21:03.990Z,1
2023-03-30T10:22:01.410Z,1
2023-03-30T10:23:01.447Z,1
2023-03-30T10:24:02.135Z,1
2023-03-30T10:25:02.809Z,1
2023-03-30T10:26:01.415Z,1
2023-03-30T10:27:03.455Z,1
2023-03-30T10:28:01.203Z,1
2023-03-30T10:29:05.089Z,1
2023-03-30T10:30:01.093Z,1
2023-03-30T10:31:01.118Z,1
2023-03-30T10:32:06.189Z,1
2023-03-30T10:33:02.365Z,1
2023-03-30T10:34:01.073Z,1
2023-03-30T10:35:01.084Z,1
2023-03-30T10:36:01.219Z,1
2023-03-30T10:37:08.318Z,1
2023-03-30T10:38:02.115Z,1
2023-03-30T10:39:02.022Z,1
2023-03-30T10:40:01.769Z,1
2023-03-30T10:41:01.156Z,1
2023-03-30T10:42:13.626Z,1
2023-03-30T10:43:01.151Z,1
2023-03-30T10:44:01.129Z,1
2023-03-30T10:45:01.045Z,1
2023-03-30T10:46:16.416Z,1
2023-03-30T10:47:16.215Z,1
2023-03-30T10:48:01.496Z,1
2023-03-30T10:49:02.217Z,1
2023-03-30T10:50:01.080Z,1
2023-03-30T10:51:01.084Z,1
2023-03-30T10:52:01.081Z,1
2023-03-30T10:53:01.179Z,1
2023-03-30T10:54:04.967Z,1
2023-03-30T10:55:01.491Z,1
2023-03-30T10:56:01.215Z,1
2023-03-30T10:57:00.622Z,1
2023-03-30T10:58:00.295Z,1
2023-03-30T10:58:59.895Z,1
2023-03-30T11:00:00.176Z,1
2023-03-30T11:01:00.156Z,1
2023-03-30T11:02:00.128Z,1
2023-03-30T11:02:59.828Z,1
2023-03-30T11:04:04.465Z,1
2023-03-30T11:05:01.061Z,1
2023-03-30T11:06:01.073Z,1
2023-03-30T11:07:01.073Z,1
2023-03-30T11:08:01.038Z,1
2023-03-30T11:09:01.076Z,1
2023-03-30T11:10:01.096Z,1
2023-03-30T11:11:01.118Z,1
2023-03-30T11:12:01.538Z,1
2023-03-30T11:13:01.139Z,1
2023-03-30T11:14:01.029Z,1
2023-03-30T11:15:01.131Z,1
2023-03-30T11:16:01.124Z,1
2023-03-30T11:17:00.878Z,1
2023-03-30T11:18:01.246Z,1
2023-03-30T11:19:01.482Z,1
2023-03-30T11:20:02.087Z,1
2023-03-30T11:21:01.461Z,1
2023-03-30T11:22:01.069Z,1
2023-03-30T11:23:01.056Z,1
2023-03-30T11:24:01.071Z,1
2023-03-30T11:25:01.224Z,1
2023-03-30T11:26:01.113Z,1
2023-03-30T11:27:01.418Z,1
2023-03-30T11:28:01.388Z,1
2023-03-30T11:29:02.257Z,1
2023-03-30T11:30:01.126Z,1
2023-03-30T11:31:01.380Z,1
2023-03-30T11:32:01.172Z,1
2023-03-30T11:33:01.187Z,1
2023-03-30T11:34:01.843Z,1
2023-03-30T11:35:01.057Z,1
2023-03-30T11:36:01.079Z,1
2023-03-30T11:37:01.031Z,1
2023-03-30T11:38:01.174Z,1
2023-03-30T11:39:01.186Z,1
2023-03-30T11:40:01.094Z,1
2023-03-30T11:41:01.210Z,1
2023-03-30T11:42:01.098Z,1
2023-03-30T11:43:01.112Z,1
2023-03-30T11:44:01.111Z,1
2023-03-30T11:45:01.106Z,1
2023-03-30T11:46:03.613Z,1
2023-03-30T11:47:01.422Z,1
2023-03-30T11:48:01.286Z,1
2023-03-30T11:49:02.859Z,1
2023-03-30T11:50:01.141Z,1
2023-03-30T11:51:01.064Z,1
2023-03-30T11:52:01.046Z,1
2023-03-30T11:53:01.068Z,1
2023-03-30T11:54:01.333Z,1
2023-03-30T11:55:03.680Z,1
2023-03-30T11:56:04.159Z,1.2
2023-03-30T11:57:01.546Z,1.3
2023-03-30T11:58:04.160Z,1.3
2023-03-30T11:59:01.236Z,1.3
2023-03-30T12:00:00.921Z,1.7
2023-03-30T12:01:00.726Z,1.9
2023-03-30T12:02:00.397Z,1.7
2023-03-30T12:03:00.211Z,1.7
2023-03-30T12:04:00.021Z,2.2
2023-03-30T12:04:59.754Z,2.5
2023-03-30T12:06:02.211Z,2.5
2023-03-30T12:07:00.460Z,2.8
2023-03-30T12:08:03.262Z,3
2023-03-30T12:09:01.066Z,3.2
2023-03-30T12:10:03.353Z,3.2
2023-03-30T12:11:01.397Z,3.4
2023-03-30T12:12:02.088Z,3.7
2023-03-30T12:13:05.684Z,4
2023-03-30T12:14:01.423Z,4.6
2023-03-30T12:15:02.112Z,5.4
2023-03-30T12:16:02.284Z,6.7
2023-03-30T12:17:00.800Z,7.2
2023-03-30T12:18:06.955Z,7.8
2023-03-30T12:19:24.454Z,8
2023-03-30T12:20:01.150Z,8.7
2023-03-30T12:21:01.459Z,9.1
2023-03-30T12:22:01.053Z,9.1
2023-03-30T12:23:09.416Z,9.5
2023-03-30T12:24:01.082Z,10.2
2023-03-30T12:25:01.054Z,10.5
2023-03-30T12:26:01.234Z,10
2023-03-30T12:27:06.204Z,10.2
2023-03-30T12:28:12.614Z,10.2
2023-03-30T12:29:26.039Z,10.5
2023-03-30T12:30:03.301Z,10.5
2023-03-30T12:31:01.138Z,10.3
2023-03-30T12:32:01.181Z,10.4
2023-03-30T12:33:14.886Z,9.4
2023-03-30T12:34:01.123Z,10.6
2023-03-30T12:35:01.151Z,10.6
2023-03-30T12:36:01.423Z,9.9
2023-03-30T12:37:01.132Z,10.1
2023-03-30T12:38:01.055Z,9.9
2023-03-30T12:39:01.047Z,9.9
2023-03-30T12:40:01.067Z,10
2023-03-30T12:41:01.056Z,10
2023-03-30T12:42:01.109Z,9.8
2023-03-30T12:43:01.075Z,9.7
2023-03-30T12:44:01.488Z,9.9
2023-03-30T12:45:01.093Z,10.2
2023-03-30T12:46:01.075Z,9.9
2023-03-30T12:47:01.089Z,9.3
2023-03-30T12:48:01.140Z,9.4
2023-03-30T12:49:03.052Z,9.2
2023-03-30T12:50:01.184Z,9.4
2023-03-30T12:51:01.137Z,8.9
2023-03-30T12:52:01.167Z,9
2023-03-30T12:53:03.613Z,9.6
2023-03-30T12:54:02.244Z,9.5
2023-03-30T12:55:01.027Z,8.8
2023-03-30T12:56:01.061Z,8.3
2023-03-30T12:57:00.842Z,8.6
2023-03-30T12:58:01.074Z,8
2023-03-30T12:59:01.067Z,7.9
2023-03-30T13:00:01.077Z,7.3
2023-03-30T13:01:01.827Z,7.6
2023-03-30T13:02:01.927Z,7.4
2023-03-30T13:03:01.572Z,6.4
2023-03-30T13:04:02.102Z,6.5
2023-03-30T13:05:01.363Z,6.8
2023-03-30T13:06:01.029Z,6.1
2023-03-30T13:07:01.146Z,5.6
2023-03-30T13:08:01.143Z,5.1
2023-03-30T13:09:01.509Z,4.6
2023-03-30T13:10:04.971Z,4.4
2023-03-30T13:11:01.709Z,4.4
2023-03-30T13:12:01.120Z,4
2023-03-30T13:13:01.065Z,3.4
2023-03-30T13:14:01.060Z,3.9
2023-03-30T13:15:01.069Z,3.3
2023-03-30T13:16:01.081Z,2.7
2023-03-30T13:17:00.818Z,2.2
2023-03-30T13:18:01.194Z,2.4
2023-03-30T13:19:01.436Z,2.1
2023-03-30T13:20:01.484Z,2.2
2023-03-30T13:21:02.718Z,2.1
2023-03-30T13:22:02.148Z,1.6
2023-03-30T13:23:01.133Z,1.7
2023-03-30T13:24:01.024Z,1.7
2023-03-30T13:25:01.135Z,1.3
2023-03-30T13:26:01.103Z,1.2
2023-03-30T13:27:01.048Z,1
2023-03-30T13:28:01.308Z,1
2023-03-30T13:29:01.051Z,1
2023-03-30T13:30:01.182Z,1
2023-03-30T13:31:01.112Z,1
2023-03-30T13:32:01.093Z,1
2023-03-30T13:33:01.160Z,1
2023-03-30T13:34:01.035Z,1
2023-03-30T13:35:06.728Z,1
2023-03-30T13:36:01.217Z,1
2023-03-30T13:37:00.913Z,1
2023-03-30T13:38:01.148Z,1
2023-03-30T13:39:01.700Z,1
2023-03-30T13:40:02.120Z,1
2023-03-30T13:41:05.152Z,1
2023-03-30T13:42:01.711Z,1
2023-03-30T13:43:01.049Z,1
2023-03-30T13:44:01.054Z,1
2023-03-30T13:45:01.057Z,1
2023-03-30T13:46:13.877Z,1
2023-03-30T13:47:01.300Z,1
2023-03-30T13:48:01.437Z,1
2023-03-30T13:49:08.079Z,1
2023-03-30T13:50:01.309Z,1
2023-03-30T13:51:01.102Z,1
2023-03-30T13:52:01.150Z,1
2023-03-30T13:53:01.118Z,1
2023-03-30T13:54:01.168Z,1
2023-03-30T13:55:01.149Z,1
2023-03-30T13:56:01.125Z,1
2023-03-30T13:57:00.818Z,1
2023-03-30T13:58:01.032Z,1
2023-03-30T13:59:01.082Z,1